Paradise, Canada
Current Conditions -  °F | °C
As of 11:12 AM on Sunday 21 Dec 2014 (Local Time) from CYQX Reporting Station
Overcast Overcast  
Wind Chill: -8°   Ceiling: 1300
Heat Index: -4°   Visibility: 15mi
Dew Point: -7°   Wind: 7mph
Humidity: 80%   Direction: 270°W
Pressure: 30.28"   Gusts: NA
Location:  49.37°N, 55.33°W
Report Text: CYQX 211412Z 27006KT 15SM OVC013 M04/M07 A3028 RMK SC8 SLP263
Loading
Personal Weather Stations






























Interactive Weather Map New forecast layout! Learn more

10-Day Weather Forecast

Advertisements
Track Severe Weather on mobile